Tiempo atmosférico en la estación meteorológica de Peraleda Del Zaucejo, Badajoz (542 m.)



Fecha
DESCASC
Temp. máxima en grados centígrados (hora)
DESCASC
Temp. mínima en grados centígrados (hora)
DESCASC
Temp. media en grados centígrados
DESCASC
Racha de viento máxima en m/sg (hora)
DESCASC
Velocidad máxima media en intervalos de 10 minutos(hora)
DESCASC
Precipitaciones diarias en mm
DESCASC
Precipitaciones de 00:00 a 06:00 en mm
DESCASC
Precipitaciones de 06:00 a 12:00 en mm
DESCASC
Precipitaciones de 12:00 a 18:00 en mm
DESCASC
Precipitaciones de 18:00 a 24:00 en mm
DESCASC
20-10-2019 15.8 (17:30) 9.1 (23:59) 12.5 10.83 (17:00) 6.67 (15:30) 0.2 0.2 0 0 0
19-10-2019 20.2 (16:50) 11.3 (02:20) 15.8 13.89 (22:40) 7.5 (15:00) 10.6 0 0 0.8 9.8
18-10-2019 22.3 (15:30) 13.3 (05:40) 17.8 8.89 (17:20) 6.11 (17:30) 0 0 0 0 0
17-10-2019 22.2 (15:40) 6.1 (00:00) 14.2 7.22 (20:50) 5.28 (21:00) 0 0 0 0 0
16-10-2019 20.8 (17:20) 4.4 (00:00) 12.6 5 (15:30) 3.33 (16:00) 0 0 0 0 0
15-10-2019 17.8 (17:10) 6.2 (00:00) 12 7.5 (00:40) 5 (00:40) 0 0 0 0 0
14-10-2019 20.4 (16:00) 11.2 (00:00) 15.8 15.28 (17:10) 9.17 (17:10) 4 0 1.8 0.2 2
13-10-2019 27.7 (16:40) 12.8 (00:00) 20.3 10.56 (16:40) 6.94 (16:40) 0 0 0 0 0
12-10-2019 30.3 (16:20) 17.9 (00:00) 24.1 9.72 (16:50) 6.39 (21:20) 0 0 0 0 0
11-10-2019 27.7 (16:20) 13.2 (00:00) 20.5 8.06 (14:10) 4.72 (16:30) 0 0 0 0 0
10-10-2019 31.2 (16:30) 12 (00:00) 21.6 7.5 (13:50) 4.72 (21:40) 0 0 0 0 0
09-10-2019 31.2 (16:50) 12.8 (00:00) 22 6.39 (17:30) 4.17 (18:20) 0 0 0 0 0
08-10-2019 33.4 (17:10) 11.8 (00:00) 22.6 6.11 (21:20) 4.17 (21:20) 0 0 0 0 0
07-10-2019 32.2 (17:00) 10 (00:00) 21.1 5.83 (16:00) 3.33 (18:40) 0 0 0 0 0
06-10-2019 29.5 (16:50) 7.6 (00:00) 18.5 6.11 (15:30) 3.61 (15:20) 0 0 0 0 0
05-10-2019 28.2 (16:20) 9.9 (00:00) 19.1 8.33 (16:50) 3.89 (17:00) 0 0 0 0 0
04-10-2019 28.6 (16:40) 10 (00:00) 19.3 7.22 (17:00) 4.17 (17:30) 0 0 0 0 0
03-10-2019 27.8 (17:10) 9.4 (00:00) 18.6 7.5 (18:00) 4.72 (16:00) 0 0 0 0 0
02-10-2019 26.5 (17:30) 9.3 (00:00) 17.9 11.67 (00:10) 7.5 (00:20) 0 0 0 0 0
01-10-2019 25.7 (17:20) 15.9 (00:00) 20.8 11.11 (23:30) 7.22 (23:30) 0 0 0 0 0
30-09-2019 32.6 (16:50) 10.4 (00:00) 21.5 8.33 (18:20) 4.72 (18:20) 0 0 0 0 0
29-09-2019 32.7 (17:40) 11.2 (00:00) 22 9.72 (15:50) 3.89 (16:30) 0 0 0 0 0
28-09-2019 32.8 (17:30) 9.8 (00:00) 21.3 5.83 (14:10) 3.33 (14:20) 0 0 0 0 0
27-09-2019 30.4 (16:10) 10.6 (00:00) 20.5 8.61 (17:50) 4.72 (17:40) 0 0 0 0 0
26-09-2019 30 (17:30) 9.7 (00:00) 19.8 6.39 (16:20) 3.61 (18:00) 0 0 0 0 0
25-09-2019 26.2 (17:30) 13.3 (00:00) 19.8 7.78 (01:10) 5 (02:00) 0 0 0 0 0
24-09-2019 29 (16:50) 9.4 (00:00) 19.2 8.61 (17:40) 5.28 (17:40) 0 0 0 0 0
23-09-2019 27.1 (17:50) 8.9 (00:00) 18 5 (12:00) 2.78 (19:40) 0 0 0 0 0
22-09-2019 22.3 (16:40) 14.2 (00:00) 18.2 9.17 (16:30) 6.39 (08:00) 2.2 0.8 1.4 0 0

Gráficas

Temp. máximas Temp. mínimas Temp. medias Precipitaciones Rachas de viento máximas Velocidades máximas media en intervalos de 10 minutos

Datos horarios

Fecha y hora oficial Temperatura (ºC) Velocidad del viento (km/h) Dirección del viento Racha (km/h) Dirección de racha Precipitación (mm) Presión (hPa) Tendencia (hPa) Humedad (%)
2019-10-21 23:00:00 12.5 6 Noroeste 18 Sudoeste 0 -- -- 65
2019-10-21 22:00:00 12.6 12 Sudoeste 16 Sudoeste 0 -- -- 69
2019-10-21 21:00:00 13.4 0 Calma 17 Sudeste 0 -- -- 62
2019-10-21 20:00:00 14.1 9 Sudeste 19 Sudeste 0 -- -- 59
2019-10-21 19:00:00 16.8 5 Este 33 Norte 0 -- -- 47
2019-10-21 18:00:00 18.3 3 Sudeste 15 Norte 0 -- -- 36
2019-10-21 17:00:00 18 5 Nordeste 14 Este 0 -- -- 41
2019-10-21 16:00:00 17.2 5 Este 10 Sudoeste 0 -- -- 43
2019-10-21 15:00:00 17.4 8 Sudoeste 13 Oeste 0 -- -- 45
2019-10-21 14:00:00 15.8 4 Este 14 Sur 0 -- -- 54
2019-10-21 13:00:00 15.1 6 Sur 13 Sudoeste 0 -- -- 56
2019-10-21 12:00:00 13.1 3 Este 7 Este 0 -- -- 72
2019-10-21 11:00:00 10.4 2 Norte 4 Norte 0 -- -- 85
2019-10-21 10:00:00 7.4 0 Calma 3 Noroeste 0 -- -- 99
2019-10-21 09:00:00 4.9 0 Calma 7 Noroeste 0 -- -- 98
2019-10-21 08:00:00 4.3 0 Calma 4 Nordeste 0 -- -- 96
2019-10-21 07:00:00 5.2 0 Calma 3 Oeste 0 -- -- 96
2019-10-21 06:00:00 5.8 3 Norte 4 Norte 0 -- -- 94
2019-10-21 05:00:00 6.6 2 Sudoeste 6 Oeste 0 -- -- 94
2019-10-21 04:00:00 6.6 3 Oeste 8 Sudoeste 0 -- -- 94
2019-10-21 03:00:00 8.2 6 Sudoeste 10 Sudoeste 0 -- -- 85
2019-10-21 02:00:00 8.6 4 Oeste 8 Oeste 0 -- -- 82
2019-10-21 01:00:00 9.5 2 Oeste 9 Sudoeste 0 -- -- 78
2019-10-21 00:00:00 9.1 0 Calma 5 Norte 0 -- -- 81
2019-10-20 23:00:00 10.5 5 Norte 14 Noroeste 0 -- -- 75
2019-10-20 22:00:00 11.4 13 Oeste 28 Oeste 0 -- -- 72
2019-10-20 21:00:00 12.3 10 Oeste 19 Oeste 0 -- -- 66
2019-10-20 20:00:00 13.2 13 Noroeste 19 Oeste 0 -- -- 63
2019-10-20 19:00:00 14.7 17 Oeste 29 Noroeste 0 -- -- 55
2019-10-20 18:00:00 15.7 17 Oeste 30 Oeste 0 -- -- 49
2019-10-20 17:00:00 15.4 23 Oeste 39 Oeste 0 -- -- 52
2019-10-20 16:00:00 14.9 23 Oeste 34 Oeste 0 -- -- 58
2019-10-20 15:00:00 13.7 20 Oeste 31 Oeste 0 -- -- 62
2019-10-20 14:00:00 14.2 22 Oeste 32 Oeste 0 -- -- 63
2019-10-20 13:00:00 12.2 19 Oeste 27 Oeste 0 -- -- 76
2019-10-20 12:00:00 11 18 Oeste 27 Oeste 0 -- -- 81
2019-10-20 11:00:00 10.2 22 Oeste 32 Oeste 0 -- -- 85
2019-10-20 10:00:00 9.5 20 Oeste 29 Oeste 0 -- -- 88
2019-10-20 09:00:00 9.3 11 Oeste 34 Oeste 0 -- -- 88
2019-10-20 08:00:00 9.3 15 Oeste 32 Oeste 0 -- -- 88
2019-10-20 07:00:00 9.8 18 Oeste 29 Oeste 0 -- -- 87
2019-10-20 06:00:00 10.3 19 Oeste 38 Oeste 0 -- -- 86
2019-10-20 05:00:00 10.3 9 Oeste 34 Oeste 0 -- -- 89
2019-10-20 04:00:00 10.6 21 Oeste 33 Oeste 0 -- -- 86
2019-10-20 03:00:00 11 19 Oeste 29 Oeste 0 -- -- 87
2019-10-20 02:00:00 11.6 18 Oeste 36 Noroeste 0 -- -- 88
2019-10-20 01:00:00 12.5 13 Oeste 25 Oeste 0.2 -- -- 90
2019-10-20 00:00:00 12.8 16 Oeste 30 Oeste 0 -- -- 91
2019-10-19 23:00:00 13.7 24 Oeste 50 Sudoeste 1.8 -- -- 90
2019-10-19 22:00:00 14.2 11 Oeste 48 Noroeste 0.6 -- -- 90
2019-10-19 21:00:00 15.9 15 Sudoeste 26 Oeste 0.6 -- -- 93
2019-10-19 20:00:00 15.5 18 Sudoeste 37 Sur 3.2 -- -- 93
2019-10-19 19:00:00 15.9 12 Sudoeste 38 Sudoeste 3.6 -- -- 94
2019-10-19 18:00:00 17.5 19 Sudoeste 44 Sur 0.6 -- -- 83
2019-10-19 17:00:00 20.1 22 Sudoeste 40 Sur 0 -- -- 62
2019-10-19 16:00:00 19 20 Sudoeste 40 Sudoeste 0 -- -- 65
2019-10-19 15:00:00 18.6 27 Sudoeste 41 Sur 0 -- -- 67
2019-10-19 14:00:00 17.9 20 Sudoeste 36 Sudoeste 0 -- -- 70
2019-10-19 13:00:00 15.8 13 Sur 31 Sur 0.2 -- -- 82
2019-10-19 12:00:00 13.7 5 Sur 16 Sudeste 0 -- -- 93
2019-10-19 11:00:00 12.9 7 Sudeste 16 Sur 0 -- -- 93
2019-10-19 10:00:00 13.1 8 Sur 13 Sur 0 -- -- 85
2019-10-19 09:00:00 12 0 Calma 13 Sudoeste 0 -- -- 91
2019-10-19 08:00:00 12.1 3 Sur 10 Sur 0 -- -- 90
2019-10-19 07:00:00 12.3 7 Sur 15 Oeste 0 -- -- 90
2019-10-19 06:00:00 12.8 9 Oeste 17 Oeste 0 -- -- 82
2019-10-19 05:00:00 12.9 9 Oeste 19 Oeste 0 -- -- 81
2019-10-19 04:00:00 12.7 10 Oeste 16 Oeste 0 -- -- 83
2019-10-19 03:00:00 11.4 12 Sudoeste 14 Sudoeste 0 -- -- 88
2019-10-19 02:00:00 11.8 4 Oeste 9 Oeste 0 -- -- 84
2019-10-19 01:00:00 13.2 7 Oeste 13 Noroeste 0 -- -- 80
2019-10-19 00:00:00 14.3 8 Oeste 20 Oeste 0 -- -- 81
2019-10-18 23:00:00 16.1 16 Oeste 28 Oeste 0 -- -- 73
2019-10-18 22:00:00 16.7 21 Oeste 31 Oeste 0 -- -- 73
2019-10-18 21:00:00 17.4 14 Oeste 26 Oeste 0 -- -- 76
2019-10-18 20:00:00 18.7 18 Oeste 27 Oeste 0 -- -- 73
2019-10-18 19:00:00 19.9 17 Oeste 30 Noroeste 0 -- -- 71
2019-10-18 18:00:00 21.4 19 Sudoeste 32 Sudoeste 0 -- -- 65
2019-10-18 17:00:00 22.2 18 Sudoeste 31 Sudoeste 0 -- -- 61
2019-10-18 16:00:00 22.2 15 Sudoeste 25 Sudoeste 0 -- -- 61
2019-10-18 15:00:00 21.4 15 Oeste 28 Oeste 0 -- -- 66
2019-10-18 14:00:00 19.3 13 Sur 21 Sur 0 -- -- 79
2019-10-18 13:00:00 17.7 10 Sudoeste 24 Sur 0 -- -- 87
2019-10-18 12:00:00 19 12 Sudoeste 21 Sur 0 -- -- 75
2019-10-18 11:00:00 16.7 10 Sur 19 Sudoeste 0 -- -- 86
2019-10-18 10:00:00 15.3 13 Sudoeste 17 Sudoeste 0 -- -- 93
2019-10-18 09:00:00 14.2 10 Sudoeste 14 Sudoeste 0 -- -- 97
2019-10-18 08:00:00 13.6 11 Sudoeste 17 Sudoeste 0 -- -- 98
2019-10-18 07:00:00 13.9 9 Sudoeste 15 Sudoeste 0 -- -- 98
2019-10-18 06:00:00 13.4 10 Sudoeste 13 Sudoeste 0 -- -- 96
2019-10-18 05:00:00 13.9 8 Sudoeste 10 Sudoeste 0 -- -- 95
2019-10-18 04:00:00 14.7 5 Sudoeste 15 Oeste 0 -- -- 94
2019-10-18 03:00:00 15.5 8 Oeste 16 Oeste 0 -- -- 94
2019-10-18 02:00:00 15.2 9 Sudoeste 18 Oeste 0 -- -- 89
2019-10-18 01:00:00 15.1 8 Sudoeste 11 Sudoeste 0 -- -- 89
2019-10-18 00:00:00 17.2 9 Sudoeste 18 Oeste 0 -- -- 80
2019-10-17 23:00:00 18.1 9 Oeste 22 Oeste 0 -- -- 76
2019-10-17 22:00:00 17.9 11 Noroeste 26 Oeste 0 -- -- 80
2019-10-17 21:00:00 18.9 19 Noroeste 26 Oeste 0 -- -- 74
2019-10-17 20:00:00 20.4 12 Noroeste 19 Oeste 0 -- -- 66
2019-10-17 19:00:00 21.1 12 Oeste 17 Oeste 0 -- -- 62
2019-10-17 18:00:00 21.7 3 Oeste 18 Noroeste 0 -- -- 59
2019-10-17 17:00:00 21.6 13 Oeste 25 Oeste 0 -- -- 59
2019-10-17 16:00:00 22.2 9 Oeste 25 Oeste 0 -- -- 53
2019-10-17 15:00:00 21.9 9 Noroeste 22 Noroeste 0 -- -- 52
2019-10-17 14:00:00 20.5 13 Oeste 22 Sudoeste 0 -- -- 51
2019-10-17 13:00:00 19.1 12 Sudoeste 19 Sudoeste 0 -- -- 52
2019-10-17 12:00:00 17.9 8 Sudoeste 14 Sudoeste 0 -- -- 57
2019-10-17 11:00:00 14.8 4 Este 6 Este 0 -- -- 64
2019-10-17 10:00:00 10 0 Calma 3 Noroeste 0 -- -- 86
2019-10-17 09:00:00 6.7 0 Calma 3 Oeste 0 -- -- 93
2019-10-17 08:00:00 6.3 0 Calma 5 Este 0 -- -- 93
2019-10-17 07:00:00 6.6 0 Calma 4 Noroeste 0 -- -- 93
2019-10-17 06:00:00 7 2 Noroeste 5 Noroeste 0 -- -- 90
2019-10-17 05:00:00 6.6 0 Calma 2 Noroeste 0 -- -- 92
2019-10-17 04:00:00 6.6 0 Calma 4 Noroeste 0 -- -- 89
2019-10-17 03:00:00 7.1 0 Calma 4 Oeste 0 -- -- 87
2019-10-17 02:00:00 7.7 4 Norte 6 Noroeste 0 -- -- 87
2019-10-17 01:00:00 9.3 3 Este 7 Este 0 -- -- 80
2019-10-17 00:00:00 10.9 3 Oeste 8 Noroeste 0 -- -- 73
2019-10-16 23:00:00 12.2 6 Noroeste 9 Oeste 0 -- -- 69
2019-10-16 22:00:00 12.8 4 Noroeste 10 Noroeste 0 -- -- 65
2019-10-16 21:00:00 13.8 0 Calma 6 Oeste 0 -- -- 57
2019-10-16 20:00:00 16.3 5 Noroeste 12 Noroeste 0 -- -- 47
2019-10-16 19:00:00 19.2 9 Oeste 14 Noroeste 0 -- -- 39
2019-10-16 18:00:00 20 8 Oeste 16 Sudoeste 0 -- -- 36
2019-10-16 17:00:00 20.3 7 Oeste 15 Oeste 0 -- -- 33
2019-10-16 16:00:00 19.8 12 Oeste 18 Noroeste 0 -- -- 37
2019-10-16 15:00:00 19.4 7 Sur 17 Oeste 0 -- -- 42
2019-10-16 14:00:00 18.6 4 Oeste 16 Oeste 0 -- -- 39
2019-10-16 13:00:00 17.6 5 Nordeste 9 Nordeste 0 -- -- 49
2019-10-16 12:00:00 16.4 2 Nordeste 8 Este 0 -- -- 54
2019-10-16 11:00:00 13.4 2 Este 4 Este 0 -- -- 68
2019-10-16 10:00:00 8.7 0 Calma 2 Norte 0 -- -- 91
2019-10-16 09:00:00 5.1 0 Calma 4 Norte 0 -- -- 97
2019-10-16 08:00:00 4.8 4 Noroeste 8 Noroeste 0 -- -- 97
2019-10-16 07:00:00 4.7 0 Calma 4 Norte 0 -- -- 95
2019-10-16 06:00:00 4.9 4 Oeste 5 Noroeste 0 -- -- 94
2019-10-16 05:00:00 5.8 0 Calma 5 Sur 0 -- -- 94
2019-10-16 04:00:00 6.1 0 Calma 5 Oeste 0 -- -- 93
2019-10-16 03:00:00 5.9 0 Calma 3 Oeste 0 -- -- 91
2019-10-16 02:00:00 6.5 3 Noroeste 6 Noroeste 0 -- -- 92
2019-10-16 01:00:00 7.1 0 Calma 4 Sudeste 0 -- -- 86
2019-10-16 00:00:00 7.6 0 Calma 3 Oeste 0 -- -- 85
2019-10-15 23:00:00 9.1 2 Sudeste 3 Oeste 0 -- -- 79
2019-10-15 22:00:00 11 0 Calma 4 Noroeste 0 -- -- 71
2019-10-15 21:00:00 11.9 4 Oeste 9 Noroeste 0 -- -- 68
2019-10-15 20:00:00 13.7 5 Noroeste 12 Noroeste 0 -- -- 62
2019-10-15 19:00:00 16.5 8 Norte 15 Norte 0 -- -- 47
2019-10-15 18:00:00 17.5 8 Norte 17 Noroeste 0 -- -- 42
2019-10-15 17:00:00 17.6 5 Norte 17 Norte 0 -- -- 42
2019-10-15 16:00:00 17.4 5 Sudoeste 17 Oeste 0 -- -- 47
2019-10-15 15:00:00 16.5 8 Noroeste 15 Noroeste 0 -- -- 51
2019-10-15 14:00:00 15.4 7 Noroeste 17 Norte 0 -- -- 56
2019-10-15 13:00:00 14.6 11 Noroeste 20 Noroeste 0 -- -- 57
2019-10-15 12:00:00 13.8 11 Norte 20 Noroeste 0 -- -- 57
2019-10-15 11:00:00 12.7 12 Norte 19 Norte 0 -- -- 66
2019-10-15 10:00:00 10.8 2 Este 6 Este 0 -- -- 78
2019-10-15 09:00:00 7.8 4 Sudeste 15 Noroeste 0 -- -- 86
2019-10-15 08:00:00 6.3 2 Oeste 9 Norte 0 -- -- 91
2019-10-15 07:00:00 6.2 6 Noroeste 10 Noroeste 0 -- -- 93
2019-10-15 06:00:00 7 3 Oeste 6 Este 0 -- -- 91
2019-10-15 05:00:00 8 4 Noroeste 12 Oeste 0 -- -- 88
2019-10-15 04:00:00 8.4 2 Norte 17 Oeste 0 -- -- 90
2019-10-15 03:00:00 8.9 4 Sudoeste 22 Noroeste 0 -- -- 89
2019-10-15 02:00:00 10.4 11 Noroeste 23 Noroeste 0 -- -- 80
2019-10-15 01:00:00 10.8 12 Oeste 27 Oeste 0 -- -- 85
2019-10-15 00:00:00 11.8 17 Noroeste 28 Noroeste 0 -- -- 79
2019-10-14 23:00:00 11.5 16 Oeste 30 Oeste 0 -- -- 87
2019-10-14 22:00:00 11.6 16 Oeste 26 Oeste 0 -- -- 86
2019-10-14 21:00:00 12.3 19 Oeste 24 Oeste 0 -- -- 89
2019-10-14 20:00:00 12.4 13 Oeste 23 Noroeste 0 -- -- 87
2019-10-14 19:00:00 12.9 17 Noroeste 36 Noroeste 2 -- -- 89
2019-10-14 18:00:00 13.2 27 Noroeste 55 Oeste 0.2 -- -- 89
2019-10-14 17:00:00 19.3 22 Oeste 48 Oeste 0 -- -- 49
2019-10-14 16:00:00 20.4 26 Oeste 49 Oeste 0 -- -- 41
2019-10-14 15:00:00 19.2 24 Sudoeste 37 Sudoeste 0 -- -- 53
2019-10-14 14:00:00 18 17 Oeste 35 Oeste 0 -- -- 58
2019-10-14 13:00:00 17.6 19 Oeste 36 Oeste 0 -- -- 62
2019-10-14 12:00:00 16 17 Oeste 37 Oeste 0 -- -- 74
2019-10-14 11:00:00 14.4 23 Oeste 39 Oeste 0.2 -- -- 88
2019-10-14 10:00:00 15.5 16 Oeste 32 Oeste 0 -- -- 87
2019-10-14 09:00:00 15.4 12 Oeste 35 Oeste 1.6 -- -- 88
2019-10-14 08:00:00 16.8 12 Sur 30 Sur 0 -- -- 74
2019-10-14 07:00:00 16.7 22 Sudoeste 41 Sudoeste 0 -- -- 74
2019-10-14 06:00:00 17.5 24 Sudoeste 39 Sudoeste 0 -- -- 63
2019-10-14 05:00:00 18.3 21 Sur 44 Sudoeste 0 -- -- 70
2019-10-14 04:00:00 18.4 11 Sur 26 Sudeste 0 -- -- 65
2019-10-14 03:00:00 18.5 8 Sur 17 Sur 0 -- -- 63
2019-10-14 02:00:00 18.3 10 Sudoeste 13 Sudoeste 0 -- -- 60
2019-10-14 01:00:00 16.9 4 Sudoeste 11 Sur 0 -- -- 61
2019-10-14 00:00:00 19.1 7 Sur 10 Sur 0 -- -- 57
2019-10-13 23:00:00 20.7 4 Sur 12 Sur 0 -- -- 50
2019-10-13 22:00:00 22.4 6 Sur 18 Sur 0 -- -- 45
2019-10-13 21:00:00 23.4 7 Sur 14 Sudoeste 0 -- -- 41
2019-10-13 20:00:00 24.5 10 Sudoeste 28 Sur 0 -- -- 38
2019-10-13 19:00:00 26.1 16 Sudoeste 35 Sudoeste 0 -- -- 35
2019-10-13 18:00:00 27 22 Sudoeste 36 Sur 0 -- -- 33
2019-10-13 17:00:00 27.4 22 Sudoeste 38 Sudoeste 0 -- -- 33
2019-10-13 16:00:00 27.4 20 Sudoeste 35 Sudoeste 0 -- -- 34
2019-10-13 15:00:00 26.4 19 Sur 34 Sur 0 -- -- 36
2019-10-13 14:00:00 24.3 17 Sur 27 Sudeste 0 -- -- 47
2019-10-13 13:00:00 22.6 10 Sur 27 Sur 0 -- -- 54
2019-10-13 12:00:00 20.5 14 Sur 25 Sudeste 0 -- -- 62
2019-10-13 11:00:00 17.9 9 Sur 18 Sur 0 -- -- 73
2019-10-13 10:00:00 15.4 3 Sudoeste 6 Sudoeste 0 -- -- 86
2019-10-13 09:00:00 12.8 2 Norte 9 Sur 0 -- -- 91
2019-10-13 08:00:00 13.8 6 Sur 12 Sur 0 -- -- 90
2019-10-13 07:00:00 13.8 5 Sur 10 Sudeste 0 -- -- 91
2019-10-13 06:00:00 13.8 5 Sudoeste 8 Sudoeste 0 -- -- 82
2019-10-13 05:00:00 13.8 3 Sudoeste 13 Sudoeste 0 -- -- 81
2019-10-13 04:00:00 15.4 9 Oeste 15 Sudoeste 0 -- -- 73
2019-10-13 03:00:00 17.7 9 Sudoeste 22 Sur 0 -- -- 66
2019-10-13 02:00:00 18.9 4 Sudeste 19 Sudeste 0 -- -- 61
2019-10-13 01:00:00 19.6 7 Sudeste 18 Sudeste 0 -- -- 67
2019-10-13 00:00:00 20.2 5 Sudoeste 17 Sudoeste 0 -- -- 68
2019-10-12 23:00:00 21.3 14 Sudoeste 27 Sudoeste 0 -- -- 65
2019-10-12 22:00:00 22.2 13 Sudoeste 33 Sudoeste 0 -- -- 62
2019-10-12 21:00:00 24.3 15 Sudoeste 30 Sudoeste 0 -- -- 52
2019-10-12 20:00:00 25.9 19 Sudoeste 31 Sudoeste 0 -- -- 45
2019-10-12 19:00:00 28 12 Sur 32 Sudoeste 0 -- -- 31
2019-10-12 18:00:00 29.1 20 Sudoeste 33 Sur 0 -- -- 27
2019-10-12 17:00:00 29.7 17 Sudoeste 35 Sur 0 -- -- 26
2019-10-12 16:00:00 29.4 15 Sur 33 Sur 0 -- -- 28
2019-10-12 15:00:00 29.7 15 Sur 26 Sur 0 -- -- 28
2019-10-12 14:00:00 27.3 10 Este 23 Sudeste 0 -- -- 35
2019-10-12 13:00:00 26.4 12 Este 24 Sur 0 -- -- 38
2019-10-12 12:00:00 24.2 6 Este 10 Nordeste 0 -- -- 44
2019-10-12 11:00:00 22 5 Este 8 Este 0 -- -- 48
2019-10-12 10:00:00 19.6 0 Calma 8 Noroeste 0 -- -- 53
2019-10-12 09:00:00 18 3 Norte 4 Noroeste 0 -- -- 57
2019-10-12 08:00:00 18.3 0 Calma 16 Sudeste 0 -- -- 56
2019-10-12 07:00:00 19.9 6 Sur 14 Sudeste 0 -- -- 51
2019-10-12 06:00:00 18.6 5 Oeste 9 Noroeste 0 -- -- 53
2019-10-12 05:00:00 18.1 4 Noroeste 5 Sudoeste 0 -- -- 54
2019-10-12 04:00:00 18.4 3 Noroeste 9 Oeste 0 -- -- 52
2019-10-12 03:00:00 18.6 0 Calma 6 Sudeste 0 -- -- 52
2019-10-12 02:00:00 18.2 2 Oeste 5 Norte 0 -- -- 53
2019-10-12 01:00:00 17.9 4 Oeste 5 Oeste 0 -- -- 53
2019-10-12 00:00:00 19.6 3 Sur 9 Sur 0 -- -- 50
2019-10-11 23:00:00 22.9 5 Sur 19 Sudoeste 0 -- -- 43
2019-10-11 22:00:00 23.4 9 Sur 17 Sudoeste 0 -- -- 43
2019-10-11 21:00:00 24 12 Sur 17 Sur 0 -- -- 43
2019-10-11 20:00:00 25 10 Sur 17 Sur 0 -- -- 41
2019-10-11 19:00:00 26.3 8 Sur 21 Sudoeste 0 -- -- 37
2019-10-11 18:00:00 26.6 13 Sur 21 Sur 0 -- -- 33
2019-10-11 17:00:00 27.4 12 Sudoeste 26 Sudoeste 0 -- -- 30
2019-10-11 16:00:00 27.6 10 Sur 22 Sudoeste 0 -- -- 32
2019-10-11 15:00:00 27.5 13 Sur 29 Sur 0 -- -- 37
2019-10-11 14:00:00 27.4 16 Sur 24 Sur 0 -- -- 37
2019-10-11 13:00:00 26.4 13 Sur 23 Sudeste 0 -- -- 39
2019-10-11 12:00:00 23.8 10 Sudeste 16 Este 0 -- -- 52
2019-10-11 11:00:00 21.2 8 Sudeste 16 Sudeste 0 -- -- 63
2019-10-11 10:00:00 17.6 0 Calma 4 Noroeste 0 -- -- 76
2019-10-11 09:00:00 13.7 0 Calma 4 Noroeste 0 -- -- 89
2019-10-11 08:00:00 13.7 2 Oeste 5 Noroeste 0 -- -- 83
2019-10-11 07:00:00 15.2 0 Calma 4 Sudeste 0 -- -- 78
2019-10-11 06:00:00 17.2 0 Calma 12 Sur 0 -- -- 74
2019-10-11 05:00:00 18.8 6 Sudeste 21 Sudoeste 0 -- -- 70
2019-10-11 04:00:00 18.2 6 Sur 12 Sur 0 -- -- 64
2019-10-11 03:00:00 17.7 4 Sudoeste 11 Sudoeste 0 -- -- 54
2019-10-11 02:00:00 19.9 10 Sudoeste 15 Sudoeste 0 -- -- 48
2019-10-11 01:00:00 20.5 10 Sudoeste 16 Sur 0 -- -- 47
2019-10-11 00:00:00 22.1 9 Sudoeste 15 Sudoeste 0 -- -- 45
2019-10-10 23:00:00 22 6 Sur 16 Sur 0 -- -- 48
2019-10-10 22:00:00 24.4 13 Sur 23 Sur 0 -- -- 46
2019-10-10 21:00:00 25.8 15 Sur 19 Sur 0 -- -- 44
2019-10-10 20:00:00 27.4 8 Sur 14 Sudeste 0 -- -- 39
2019-10-10 19:00:00 29.5 10 Sur 20 Sudeste 0 -- -- 35
2019-10-10 18:00:00 31 10 Sur 19 Sur 0 -- -- 31
2019-10-10 17:00:00 31.1 10 Sur 24 Sudoeste 0 -- -- 31
2019-10-10 16:00:00 30.9 9 Sudoeste 20 Sur 0 -- -- 31
2019-10-10 15:00:00 30.2 9 Sudoeste 22 Sudoeste 0 -- -- 33
2019-10-10 14:00:00 29 13 Sur 27 Sudeste 0 -- -- 37
2019-10-10 13:00:00 27.9 15 Sur 24 Sur 0 -- -- 37
2019-10-10 12:00:00 25.9 6 Este 12 Sudeste 0 -- -- 31
2019-10-10 11:00:00 23.3 5 Sudeste 8 Sudeste 0 -- -- 30
2019-10-10 10:00:00 18.3 0 Calma 3 Noroeste 0 -- -- 41
2019-10-10 09:00:00 12.5 3 Noroeste 4 Noroeste 0 -- -- 54
2019-10-10 08:00:00 12 0 Calma 5 Oeste 0 -- -- 55
2019-10-10 07:00:00 12.5 2 Noroeste 4 Oeste 0 -- -- 55
2019-10-10 06:00:00 12.9 3 Noroeste 5 Oeste 0 -- -- 52
2019-10-10 05:00:00 13.3 3 Noroeste 5 Noroeste 0 -- -- 51
2019-10-10 04:00:00 14.6 2 Sur 3 Oeste 0 -- -- 50
2019-10-10 03:00:00 16.3 2 Sudeste 4 Sudeste 0 -- -- 43
2019-10-10 02:00:00 17.6 0 Calma 8 Oeste 0 -- -- 38
2019-10-10 01:00:00 18.9 0 Calma 7 Oeste 0 -- -- 36
2019-10-10 00:00:00 21.2 5 Noroeste 13 Noroeste 0 -- -- 38
2019-10-09 23:00:00 23.1 8 Noroeste 18 Noroeste 0 -- -- 36
2019-10-09 22:00:00 23.3 12 Noroeste 18 Noroeste 0 -- -- 45
2019-10-09 21:00:00 24.3 10 Noroeste 15 Noroeste 0 -- -- 45
2019-10-09 20:00:00 25.5 7 Noroeste 19 Noroeste 0 -- -- 44
2019-10-09 19:00:00 29 13 Noroeste 22 Noroeste 0 -- -- 39
2019-10-09 18:00:00 30.2 12 Oeste 23 Oeste 0 -- -- 37
2019-10-09 17:00:00 31.1 10 Oeste 21 Oeste 0 -- -- 34
2019-10-09 16:00:00 30.8 6 Oeste 21 Oeste 0 -- -- 32
2019-10-09 15:00:00 30.3 6 Sudoeste 17 Sudoeste 0 -- -- 35
2019-10-09 14:00:00 28.8 9 Sur 16 Sur 0 -- -- 40
2019-10-09 13:00:00 26.8 4 Este 10 Este 0 -- -- 47
2019-10-09 12:00:00 24.7 5 Nordeste 14 Norte 0 -- -- 51
2019-10-09 11:00:00 21.7 11 Sudoeste 19 Sudoeste 0 -- -- 60
2019-10-09 10:00:00 18.2 0 Calma 10 Norte 0 -- -- 56
2019-10-09 09:00:00 13.3 3 Noroeste 6 Norte 0 -- -- 68
2019-10-09 08:00:00 13.3 4 Sudeste 15 Norte 0 -- -- 69
2019-10-09 07:00:00 14.4 2 Noroeste 15 Oeste 0 -- -- 61
2019-10-09 06:00:00 14.5 4 Noroeste 7 Oeste 0 -- -- 63
2019-10-09 05:00:00 15.7 4 Sur 8 Sudeste 0 -- -- 58
2019-10-09 04:00:00 16.7 2 Este 8 Oeste 0 -- -- 51
2019-10-09 03:00:00 19.9 9 Oeste 12 Oeste 0 -- -- 56
2019-10-09 02:00:00 21.4 6 Oeste 14 Noroeste 0 -- -- 42
2019-10-09 01:00:00 20.1 4 Sudeste 11 Noroeste 0 -- -- 42
2019-10-09 00:00:00 19.4 6 Noroeste 8 Noroeste 0 -- -- 43
2019-10-08 23:00:00 20.8 0 Calma 5 Norte 0 -- -- 40
2019-10-08 22:00:00 24.5 8 Noroeste 22 Sudoeste 0 -- -- 36
2019-10-08 21:00:00 26.8 10 Sudoeste 19 Sudoeste 0 -- -- 34
2019-10-08 20:00:00 28.1 12 Sudoeste 17 Sur 0 -- -- 30
2019-10-08 19:00:00 32.4 6 Sudoeste 15 Sudeste 0 -- -- 24
2019-10-08 18:00:00 33.1 4 Sudoeste 14 Sudoeste 0 -- -- 23
2019-10-08 17:00:00 33.1 3 Este 16 Sudeste 0 -- -- 24
2019-10-08 16:00:00 32.4 8 Noroeste 17 Oeste 0 -- -- 24
2019-10-08 15:00:00 32 9 Oeste 19 Oeste 0 -- -- 25
2019-10-08 14:00:00 31.3 8 Sudeste 18 Sudoeste 0 -- -- 26
2019-10-08 13:00:00 30.1 8 Sudoeste 15 Sudoeste 0 -- -- 27
2019-10-08 12:00:00 27.5 4 Sudeste 8 Este 0 -- -- 30
2019-10-08 11:00:00 23.8 4 Este 8 Este 0 -- -- 35
2019-10-08 10:00:00 18.9 0 Calma 2 Noroeste 0 -- -- 45
2019-10-08 09:00:00 12.8 0 Calma 5 Noroeste 0 -- -- 59
2019-10-08 08:00:00 12.5 0 Calma 4 Oeste 0 -- -- 58
2019-10-08 07:00:00 12.5 0 Calma 4 Oeste 0 -- -- 58
2019-10-08 06:00:00 13.6 0 Calma 4 Noroeste 0 -- -- 54
2019-10-08 05:00:00 14.6 0 Calma 4 Oeste 0 -- -- 52
2019-10-08 04:00:00 15.1 4 Noroeste 8 Noroeste 0 -- -- 50
2019-10-08 03:00:00 16 3 Oeste 4 Oeste 0 -- -- 49
2019-10-08 02:00:00 16.8 0 Calma 4 Sudeste 0 -- -- 46
2019-10-08 01:00:00 18.4 3 Sudeste 4 Sudeste 0 -- -- 41
2019-10-08 00:00:00 19.5 0 Calma 6 Noroeste 0 -- -- 41
2019-10-07 23:00:00 21.2 3 Oeste 9 Noroeste 0 -- -- 36
2019-10-07 22:00:00 22.1 3 Noroeste 9 Noroeste 0 -- -- 34
2019-10-07 21:00:00 23.5 7 Noroeste 12 Noroeste 0 -- -- 31
2019-10-07 20:00:00 26.8 6 Noroeste 19 Norte 0 -- -- 26
2019-10-07 19:00:00 30.8 10 Norte 18 Nordeste 0 -- -- 22
2019-10-07 18:00:00 31.8 9 Nordeste 18 Nordeste 0 -- -- 22
2019-10-07 17:00:00 32.2 6 Nordeste 16 Norte 0 -- -- 21
2019-10-07 16:00:00 31.2 8 Nordeste 21 Este 0 -- -- 20
2019-10-07 15:00:00 30.2 6 Este 18 Nordeste 0 -- -- 23
2019-10-07 14:00:00 29 6 Este 15 Este 0 -- -- 25
2019-10-07 13:00:00 27.4 8 Sudeste 17 Este 0 -- -- 28
2019-10-07 12:00:00 25.8 4 Este 10 Este 0 -- -- 31
2019-10-07 11:00:00 21.7 2 Este 4 Sudeste 0 -- -- 37
2019-10-07 10:00:00 16.6 0 Calma 4 Este 0 -- -- 47
2019-10-07 09:00:00 11.2 0 Calma 6 Noroeste 0 -- -- 61
2019-10-07 08:00:00 10.5 2 Sudoeste 4 Oeste 0 -- -- 63
2019-10-07 07:00:00 11.3 4 Noroeste 9 Noroeste 0 -- -- 59
2019-10-07 06:00:00 11.9 4 Noroeste 10 Sudeste 0 -- -- 56
2019-10-07 05:00:00 12.5 3 Sudeste 11 Noroeste 0 -- -- 56
2019-10-07 04:00:00 12.5 0 Calma 4 Noroeste 0 -- -- 55
2019-10-07 03:00:00 12.8 3 Noroeste 5 Noroeste 0 -- -- 54
2019-10-07 02:00:00 14.4 0 Calma 5 Noroeste 0 -- -- 50
2019-10-07 01:00:00 15.1 2 Este 8 Sudeste 0 -- -- 48
2019-10-07 00:00:00 16 2 Sudeste 6 Sudeste 0 -- -- 46
2019-10-06 23:00:00 17.8 3 Noroeste 7 Noroeste 0 -- -- 42
2019-10-06 22:00:00 18.7 3 Noroeste 5 Noroeste 0 -- -- 39
2019-10-06 21:00:00 20.5 6 Noroeste 9 Noroeste 0 -- -- 34
2019-10-06 20:00:00 23.9 7 Noroeste 19 Noroeste 0 -- -- 32
2019-10-06 19:00:00 27.9 11 Norte 19 Norte 0 -- -- 27
2019-10-06 18:00:00 28.8 12 Norte 20 Norte 0 -- -- 23
2019-10-06 17:00:00 29.1 13 Noroeste 21 Norte 0 -- -- 26
2019-10-06 16:00:00 29.1 6 Norte 22 Noroeste 0 -- -- 25
2019-10-06 15:00:00 28.9 8 Noroeste 15 Noroeste 0 -- -- 31
2019-10-06 14:00:00 27.6 5 Este 17 Este 0 -- -- 33
2019-10-06 13:00:00 26.1 4 Sur 13 Este 0 -- -- 37
2019-10-06 12:00:00 24.2 5 Este 9 Este 0 -- -- 40
2019-10-06 11:00:00 20.2 2 Este 5 Este 0 -- -- 49
2019-10-06 10:00:00 14.4 0 Calma 3 Norte 0 -- -- 64
2019-10-06 09:00:00 8.8 0 Calma 6 Noroeste 0 -- -- 79
2019-10-06 08:00:00 8.2 0 Calma 4 Noroeste 0 -- -- 76
2019-10-06 07:00:00 8.1 0 Calma 6 Norte 0 -- -- 80
2019-10-06 06:00:00 8.8 3 Noroeste 6 Noroeste 0 -- -- 77
2019-10-06 05:00:00 10.1 0 Calma 6 Noroeste 0 -- -- 71
2019-10-06 04:00:00 10.3 0 Calma 6 Sudeste 0 -- -- 71
2019-10-06 03:00:00 11.9 0 Calma 6 Sudeste 0 -- -- 67
2019-10-06 02:00:00 12 0 Calma 6 Sudeste 0 -- -- 63
2019-10-06 01:00:00 13.5 2 Sudeste 4 Este 0 -- -- 57
2019-10-06 00:00:00 16.3 0 Calma 16 Sudoeste 0 -- -- 48
2019-10-05 23:00:00 17.6 3 Oeste 10 Noroeste 0 -- -- 43
2019-10-05 22:00:00 19.1 0 Calma 9 Noroeste 0 -- -- 42
2019-10-05 21:00:00 20.6 5 Noroeste 10 Noroeste 0 -- -- 43
2019-10-05 20:00:00 23.8 10 Noroeste 17 Noroeste 0 -- -- 37
2019-10-05 19:00:00 25.8 14 Noroeste 19 Noroeste 0 -- -- 37
2019-10-05 18:00:00 27.2 10 Oeste 20 Noroeste 0 -- -- 31
2019-10-05 17:00:00 27.8 14 Noroeste 30 Oeste 0 -- -- 34
2019-10-05 16:00:00 27.5 12 Oeste 18 Oeste 0 -- -- 35
2019-10-05 15:00:00 27.4 7 Oeste 22 Oeste 0 -- -- 37
2019-10-05 14:00:00 26.1 6 Sudeste 17 Sudoeste 0 -- -- 40
2019-10-05 13:00:00 24.7 8 Oeste 15 Oeste 0 -- -- 46
2019-10-05 12:00:00 23 4 Este 10 Nordeste 0 -- -- 53
2019-10-05 11:00:00 19.7 4 Sudeste 8 Este 0 -- -- 60
2019-10-05 10:00:00 16.1 3 Este 4 Sudeste 0 -- -- 73
2019-10-05 09:00:00 10.6 0 Calma 4 Oeste 0 -- -- 91
2019-10-05 08:00:00 10.2 3 Sudoeste 4 Sudoeste 0 -- -- 89
2019-10-05 07:00:00 10.7 2 Oeste 3 Oeste 0 -- -- 88
2019-10-05 06:00:00 11.9 0 Calma 3 Este 0 -- -- 78
2019-10-05 05:00:00 12.9 3 Sudeste 5 Sudeste 0 -- -- 74
2019-10-05 04:00:00 14.4 4 Oeste 8 Sudoeste 0 -- -- 74
2019-10-05 03:00:00 14.9 0 Calma 12 Este 0 -- -- 70
2019-10-05 02:00:00 19 6 Oeste 17 Noroeste 0 -- -- 65
2019-10-05 01:00:00 17.9 6 Oeste 14 Oeste 0 -- -- 62
2019-10-05 00:00:00 19.9 3 Oeste 12 Oeste 0 -- -- 55
2019-10-04 23:00:00 19.2 10 Sudoeste 13 Sudoeste 0 -- -- 58
2019-10-04 22:00:00 20.1 2 Norte 12 Noroeste 0 -- -- 55
2019-10-04 21:00:00 22.1 9 Noroeste 18 Noroeste 0 -- -- 51
2019-10-04 20:00:00 24.6 10 Noroeste 17 Noroeste 0 -- -- 45
2019-10-04 19:00:00 27.6 9 Oeste 19 Norte 0 -- -- 34
2019-10-04 18:00:00 28.3 11 Noroeste 24 Noroeste 0 -- -- 33
2019-10-04 17:00:00 28.6 12 Oeste 26 Oeste 0 -- -- 33
2019-10-04 16:00:00 28 11 Oeste 24 Oeste 0 -- -- 36
2019-10-04 15:00:00 27.2 9 Noroeste 21 Oeste 0 -- -- 37
2019-10-04 14:00:00 26.7 10 Sudoeste 22 Oeste 0 -- -- 38
2019-10-04 13:00:00 25.1 8 Sur 19 Sudoeste 0 -- -- 42
2019-10-04 12:00:00 22.8 5 Sudoeste 13 Sur 0 -- -- 52
2019-10-04 11:00:00 19.4 3 Este 6 Este 0 -- -- 62
2019-10-04 10:00:00 15.8 2 Nordeste 4 Este 0 -- -- 71
2019-10-04 09:00:00 11 2 Oeste 4 Noroeste 0 -- -- 88
2019-10-04 08:00:00 10.5 2 Oeste 4 Sudoeste 0 -- -- 89
2019-10-04 07:00:00 11.2 3 Oeste 8 Noroeste 0 -- -- 84
2019-10-04 06:00:00 11.8 0 Calma 3 Este 0 -- -- 77
2019-10-04 05:00:00 13.3 3 Oeste 15 Sudoeste 0 -- -- 71
2019-10-04 04:00:00 15.2 6 Sudeste 9 Sudeste 0 -- -- 64
2019-10-04 03:00:00 16.8 6 Este 14 Norte 0 -- -- 59
2019-10-04 02:00:00 19.2 7 Norte 22 Noroeste 0 -- -- 61
2019-10-04 01:00:00 19.8 8 Noroeste 16 Noroeste 0 -- -- 46
2019-10-04 00:00:00 18 2 Norte 4 Noroeste 0 -- -- 38
2019-10-03 23:00:00 17.8 0 Calma 4 Oeste 0 -- -- 43
2019-10-03 22:00:00 19.9 3 Noroeste 9 Noroeste 0 -- -- 40
2019-10-03 21:00:00 21.3 2 Norte 16 Oeste 0 -- -- 37
2019-10-03 20:00:00 23.1 8 Noroeste 21 Noroeste 0 -- -- 33
2019-10-03 19:00:00 26.6 13 Noroeste 21 Noroeste 0 -- -- 28
2019-10-03 18:00:00 27.5 14 Norte 27 Noroeste 0 -- -- 24
2019-10-03 17:00:00 27.7 12 Noroeste 26 Noroeste 0 -- -- 22
2019-10-03 16:00:00 27.5 17 Norte 26 Norte 0 -- -- 23
2019-10-03 15:00:00 26 12 Noroeste 26 Noroeste 0 -- -- 28
2019-10-03 14:00:00 25.3 13 Noroeste 24 Noroeste 0 -- -- 30
2019-10-03 13:00:00 23.9 14 Noroeste 26 Noroeste 0 -- -- 33
2019-10-03 12:00:00 22.1 16 Oeste 26 Oeste 0 -- -- 39
2019-10-03 11:00:00 20.6 4 Oeste 13 Oeste 0 -- -- 45
2019-10-03 10:00:00 14.8 4 Este 9 Sudeste 0 -- -- 55
2019-10-03 09:00:00 10.8 3 Sudeste 8 Sudeste 0 -- -- 67
2019-10-03 08:00:00 9.6 0 Calma 6 Este 0 -- -- 69
2019-10-03 07:00:00 9.5 0 Calma 3 Este 0 -- -- 66
2019-10-03 06:00:00 10.8 2 Norte 6 Nordeste 0 -- -- 64
2019-10-03 05:00:00 11.4 2 Norte 3 Norte 0 -- -- 62
2019-10-03 04:00:00 12.7 0 Calma 6 Este 0 -- -- 57
2019-10-03 03:00:00 15 0 Calma 8 Oeste 0 -- -- 51
2019-10-03 02:00:00 16.9 5 Oeste 7 Oeste 0 -- -- 48
2019-10-03 01:00:00 18 5 Noroeste 13 Oeste 0 -- -- 46
2019-10-03 00:00:00 19.1 10 Oeste 16 Oeste 0 -- -- 40
2019-10-02 23:00:00 18.6 0 Calma 10 Noroeste 0 -- -- 39
2019-10-02 22:00:00 19.6 3 Norte 16 Oeste 0 -- -- 37
2019-10-02 21:00:00 21.2 13 Oeste 18 Oeste 0 -- -- 35
2019-10-02 20:00:00 22.5 11 Oeste 21 Noroeste 0 -- -- 32
2019-10-02 19:00:00 25.1 15 Noroeste 23 Noroeste 0 -- -- 28
2019-10-02 18:00:00 26.1 14 Noroeste 27 Noroeste 0 -- -- 27
2019-10-02 17:00:00 26.2 13 Noroeste 26 Noroeste 0 -- -- 25
2019-10-02 16:00:00 26 13 Noroeste 27 Noroeste 0 -- -- 27
2019-10-02 15:00:00 24.7 15 Noroeste 28 Noroeste 0 -- -- 30
2019-10-02 14:00:00 23.2 12 Noroeste 23 Oeste 0 -- -- 33
2019-10-02 13:00:00 20.5 15 Oeste 27 Oeste 0 -- -- 48
2019-10-02 12:00:00 17.8 16 Sudoeste 26 Oeste 0 -- -- 62
2019-10-02 11:00:00 14.9 15 Sudoeste 21 Sudoeste 0 -- -- 76
2019-10-02 10:00:00 12.6 13 Sudoeste 18 Sudoeste 0 -- -- 89
2019-10-02 09:00:00 10 0 Calma 5 Sudoeste 0 -- -- 90
2019-10-02 08:00:00 10.6 0 Calma 15 Sudoeste 0 -- -- 87
2019-10-02 07:00:00 11.8 14 Sudoeste 22 Sudoeste 0 -- -- 89
2019-10-02 06:00:00 12.1 3 Oeste 10 Sudoeste 0 -- -- 83
2019-10-02 05:00:00 13.9 10 Oeste 16 Oeste 0 -- -- 79
2019-10-02 04:00:00 14.9 9 Oeste 17 Noroeste 0 -- -- 75
2019-10-02 03:00:00 16 11 Noroeste 32 Oeste 0 -- -- 72
2019-10-02 02:00:00 17.4 22 Noroeste 36 Noroeste 0 -- -- 66
2019-10-02 01:00:00 18.5 22 Noroeste 42 Norte 0 -- -- 60
2019-10-02 00:00:00 19.8 23 Noroeste 40 Noroeste 0 -- -- 54
2019-10-01 23:00:00 21.1 24 Noroeste 36 Oeste 0 -- -- 49
2019-10-01 22:00:00 21.5 19 Oeste 32 Noroeste 0 -- -- 51
2019-10-01 21:00:00 22.4 23 Noroeste 34 Noroeste 0 -- -- 49
2019-10-01 20:00:00 23.3 21 Noroeste 30 Noroeste 0 -- -- 45
2019-10-01 19:00:00 24.6 23 Noroeste 36 Noroeste 0 -- -- 42
2019-10-01 18:00:00 25.6 21 Noroeste 37 Noroeste 0 -- -- 37
2019-10-01 17:00:00 25.5 19 Noroeste 37 Noroeste 0 -- -- 41
2019-10-01 16:00:00 25.1 22 Noroeste 32 Noroeste 0 -- -- 45
2019-10-01 15:00:00 24.9 17 Noroeste 32 Norte 0 -- -- 44
2019-10-01 14:00:00 23.7 16 Noroeste 28 Noroeste 0 -- -- 49
2019-10-01 13:00:00 22.3 20 Noroeste 28 Noroeste 0 -- -- 51
2019-10-01 12:00:00 21.3 20 Oeste 28 Oeste 0 -- -- 57
2019-10-01 11:00:00 19.8 17 Oeste 25 Noroeste 0 -- -- 63
2019-10-01 10:00:00 18.2 11 Noroeste 22 Noroeste 0 -- -- 73
2019-10-01 09:00:00 16 10 Sudoeste 15 Oeste 0 -- -- 79
2019-10-01 08:00:00 16.8 9 Oeste 21 Noroeste 0 -- -- 80
2019-10-01 07:00:00 18.4 4 Noroeste 12 Noroeste 0 -- -- 75
2019-10-01 06:00:00 17 4 Noroeste 13 Sudoeste 0 -- -- 58
2019-10-01 05:00:00 19.4 8 Oeste 16 Oeste 0 -- -- 56
2019-10-01 04:00:00 21 13 Oeste 22 Oeste 0 -- -- 52
2019-10-01 03:00:00 18.7 5 Oeste 9 Oeste 0 -- -- 52
2019-10-01 02:00:00 16.5 3 Noroeste 8 Noroeste 0 -- -- 43
2019-10-01 01:00:00 17.8 4 Noroeste 9 Oeste 0 -- -- 41
2019-10-01 00:00:00 20.3 3 Noroeste 14 Sudoeste 0 -- -- 36
2019-09-30 23:00:00 21.9 4 Noroeste 13 Sudoeste 0 -- -- 34
2019-09-30 22:00:00 24.3 9 Oeste 22 Oeste 0 -- -- 34
2019-09-30 21:00:00 26.2 9 Sudoeste 18 Sudoeste 0 -- -- 33
2019-09-30 20:00:00 28.9 11 Sudoeste 20 Sudoeste 0 -- -- 25
2019-09-30 19:00:00 31.5 12 Oeste 30 Sudoeste 0 -- -- 20
2019-09-30 18:00:00 32.4 6 Sudoeste 20 Oeste 0 -- -- 20
2019-09-30 17:00:00 32.5 8 Sudoeste 28 Sudoeste 0 -- -- 19
2019-09-30 16:00:00 32 7 Sudoeste 24 Oeste 0 -- -- 20
2019-09-30 15:00:00 30.9 6 Sudeste 16 Sur 0 -- -- 22
2019-09-30 14:00:00 30 6 Oeste 18 Sudoeste 0 -- -- 24
2019-09-30 13:00:00 29.4 6 Sur 17 Sudoeste 0 -- -- 23
2019-09-30 12:00:00 27.4 4 Sudeste 8 Este 0 -- -- 24
2019-09-30 11:00:00 23.1 3 Este 5 Este 0 -- -- 32
2019-09-30 10:00:00 17.7 0 Calma 3 Noroeste 0 -- -- 41
2019-09-30 09:00:00 11.6 0 Calma 4 Noroeste 0 -- -- 57
2019-09-30 08:00:00 11 0 Calma 3 Oeste 0 -- -- 58
2019-09-30 07:00:00 11.5 0 Calma 5 Noroeste 0 -- -- 56
2019-09-30 06:00:00 12.1 4 Noroeste 5 Noroeste 0 -- -- 55
2019-09-30 05:00:00 12.9 0 Calma 4 Noroeste 0 -- -- 51
2019-09-30 04:00:00 13.3 2 Oeste 4 Oeste 0 -- -- 49
2019-09-30 03:00:00 15.1 0 Calma 8 Este 0 -- -- 46
2019-09-30 02:00:00 16.5 3 Sudeste 5 Sudeste 0 -- -- 42
2019-09-30 01:00:00 17.2 2 Norte 4 Oeste 0 -- -- 44
2019-09-30 00:00:00 19 0 Calma 5 Noroeste 0 -- -- 42
2019-09-29 23:00:00 22.2 6 Noroeste 11 Noroeste 0 -- -- 36
2019-09-29 22:00:00 23.9 6 Noroeste 13 Noroeste 0 -- -- 32
2019-09-29 21:00:00 24.6 9 Noroeste 16 Norte 0 -- -- 29
2019-09-29 20:00:00 27.9 7 Noroeste 19 Noroeste 0 -- -- 27
2019-09-29 19:00:00 30.9 10 Norte 20 Noroeste 0 -- -- 24
2019-09-29 18:00:00 32.3 12 Oeste 25 Oeste 0 -- -- 18
2019-09-29 17:00:00 31.9 6 Este 24 Oeste 0 -- -- 20
2019-09-29 16:00:00 32.1 9 Sudoeste 35 Oeste 0 -- -- 19
2019-09-29 15:00:00 31.4 8 Oeste 19 Oeste 0 -- -- 20
2019-09-29 14:00:00 30.5 5 Sudeste 16 Sudoeste 0 -- -- 21
2019-09-29 13:00:00 29.2 7 Sur 15 Sudoeste 0 -- -- 24
2019-09-29 12:00:00 26.8 5 Este 9 Este 0 -- -- 29
2019-09-29 11:00:00 22.9 3 Sudeste 5 Este 0 -- -- 35
2019-09-29 10:00:00 18.2 0 Calma 3 Noroeste 0 -- -- 44
2019-09-29 09:00:00 12.3 0 Calma 3 Sudeste 0 -- -- 59
2019-09-29 08:00:00 11.8 0 Calma 6 Noroeste 0 -- -- 59
2019-09-29 07:00:00 12.3 3 Noroeste 7 Norte 0 -- -- 56
2019-09-29 06:00:00 12.6 4 Noroeste 6 Noroeste 0 -- -- 55
2019-09-29 05:00:00 14.2 3 Noroeste 5 Oeste 0 -- -- 49
2019-09-29 04:00:00 15.3 2 Sudeste 5 Este 0 -- -- 47
2019-09-29 03:00:00 16.4 4 Este 8 Este 0 -- -- 45
2019-09-29 02:00:00 16.3 0 Calma 2 Sudeste 0 -- -- 46
2019-09-29 01:00:00 17.3 2 Noroeste 13 Sudoeste 0 -- -- 43
2019-09-29 00:00:00 20.1 5 Noroeste 13 Sudoeste 0 -- -- 37
2019-09-28 23:00:00 21.3 9 Sudoeste 12 Sudoeste 0 -- -- 34
2019-09-28 22:00:00 24.7 6 Noroeste 13 Oeste 0 -- -- 31
2019-09-28 21:00:00 26.1 7 Oeste 14 Sudoeste 0 -- -- 29
2019-09-28 20:00:00 26 3 Oeste 11 Sur 0 -- -- 28
2019-09-28 19:00:00 31.6 8 Sur 18 Sur 0 -- -- 22
2019-09-28 18:00:00 32.4 8 Sur 19 Sudoeste 0 -- -- 21
2019-09-28 17:00:00 32.4 9 Sudoeste 21 Sudoeste 0 -- -- 21
2019-09-28 16:00:00 31.4 4 Nordeste 17 Sur 0 -- -- 24
2019-09-28 15:00:00 31.1 6 Sur 21 Este 0 -- -- 25
2019-09-28 14:00:00 29.8 10 Sudeste 21 Sudeste 0 -- -- 27
2019-09-28 13:00:00 28.7 5 Este 15 Este 0 -- -- 27
2019-09-28 12:00:00 26.1 6 Sudeste 10 Este 0 -- -- 29
2019-09-28 11:00:00 22.8 2 Sudeste 6 Sudeste 0 -- -- 35
2019-09-28 10:00:00 17.9 0 Calma -- -- 0 -- -- 44
2019-09-28 09:00:00 11.1 2 Noroeste 3 Noroeste 0 -- -- 63
2019-09-28 08:00:00 10.2 0 Calma 4 Oeste 0 -- -- 65
2019-09-28 07:00:00 10.5 0 Calma 5 Oeste 0 -- -- 64
2019-09-28 06:00:00 11.4 0 Calma 4 Oeste 0 -- -- 61
2019-09-28 05:00:00 11.9 3 Noroeste 4 Oeste 0 -- -- 58
2019-09-28 04:00:00 13 0 Calma 4 Noroeste 0 -- -- 57
2019-09-28 03:00:00 13.8 4 Oeste 5 Oeste 0 -- -- 54
2019-09-28 02:00:00 16.4 3 Sudeste 6 Oeste 0 -- -- 46
2019-09-28 01:00:00 17.4 2 Sudoeste 5 Oeste 0 -- -- 45
2019-09-28 00:00:00 18.8 3 Oeste 5 Noroeste 0 -- -- 45
2019-09-27 23:00:00 20.6 3 Noroeste 5 Noroeste 0 -- -- 36
2019-09-27 22:00:00 21 4 Noroeste 6 Noroeste 0 -- -- 36
2019-09-27 21:00:00 22.3 3 Oeste 9 Noroeste 0 -- -- 37
2019-09-27 20:00:00 26.3 8 Noroeste 15 Oeste 0 -- -- 31
2019-09-27 19:00:00 29 12 Noroeste 24 Oeste 0 -- -- 27
2019-09-27 18:00:00 30 12 Noroeste 31 Norte 0 -- -- 27
2019-09-27 17:00:00 30.3 13 Norte 21 Norte 0 -- -- 29
2019-09-27 16:00:00 30.2 9 Nordeste 22 Norte 0 -- -- 26
2019-09-27 15:00:00 29.7 8 Oeste 27 Oeste 0 -- -- 27
2019-09-27 14:00:00 28.9 11 Oeste 18 Oeste 0 -- -- 31
2019-09-27 13:00:00 28.2 6 Sur 14 Sudoeste 0 -- -- 32
2019-09-27 12:00:00 25.9 3 Este 8 Este 0 -- -- 37
2019-09-27 11:00:00 22 4 Este 8 Sudeste 0 -- -- 43
2019-09-27 10:00:00 17.4 0 Calma 3 Oeste 0 -- -- 53
2019-09-27 09:00:00 12.2 0 Calma 3 Nordeste 0 -- -- 68
2019-09-27 08:00:00 11.1 3 Noroeste 5 Noroeste 0 -- -- 71
2019-09-27 07:00:00 11.5 0 Calma 4 Noroeste 0 -- -- 69
2019-09-27 06:00:00 12.3 2 Noroeste 3 Noroeste 0 -- -- 68
2019-09-27 05:00:00 12.5 0 Calma 3 Oeste 0 -- -- 66
2019-09-27 04:00:00 13.4 0 Calma 3 Sudeste 0 -- -- 64
2019-09-27 03:00:00 14.1 0 Calma 3 Noroeste 0 -- -- 61
2019-09-27 02:00:00 15.4 3 Noroeste 5 Noroeste 0 -- -- 57
2019-09-27 01:00:00 18.3 3 Noroeste 17 Sudoeste 0 -- -- 48
2019-09-27 00:00:00 19 7 Sudoeste 12 Sudoeste 0 -- -- 48
2019-09-26 23:00:00 21.6 6 Noroeste 13 Norte 0 -- -- 41
2019-09-26 22:00:00 23.1 9 Noroeste 16 Noroeste 0 -- -- 38
2019-09-26 21:00:00 22.8 8 Noroeste 12 Noroeste 0 -- -- 40
2019-09-26 20:00:00 25.8 5 Noroeste 17 Oeste 0 -- -- 30
2019-09-26 19:00:00 29.2 9 Noroeste 20 Oeste 0 -- -- 26
2019-09-26 18:00:00 29.9 13 Oeste 21 Oeste 0 -- -- 27
2019-09-26 17:00:00 29.6 11 Sudoeste 23 Sudoeste 0 -- -- 27
2019-09-26 16:00:00 29 10 Sudoeste 22 Sudoeste 0 -- -- 28
2019-09-26 15:00:00 28.2 6 Sudeste 18 Noroeste 0 -- -- 30
2019-09-26 14:00:00 26.9 7 Norte 17 Este 0 -- -- 32
2019-09-26 13:00:00 26.2 4 Nordeste 11 Nordeste 0 -- -- 35
2019-09-26 12:00:00 24.1 4 Sudeste 9 Sudeste 0 -- -- 40
2019-09-26 11:00:00 20.9 3 Este 5 Este 0 -- -- 47
2019-09-26 10:00:00 16.6 0 Calma 3 Este 0 -- -- 58
2019-09-26 09:00:00 11.5 0 Calma 4 Oeste 0 -- -- 72
2019-09-26 08:00:00 9.9 2 Oeste 4 Noroeste 0 -- -- 79
2019-09-26 07:00:00 10.4 0 Calma 3 Oeste 0 -- -- 76
2019-09-26 06:00:00 11.8 0 Calma 5 Este 0 -- -- 68
2019-09-26 05:00:00 12.9 0 Calma 5 Este 0 -- -- 63
2019-09-26 04:00:00 15.2 3 Noroeste 7 Noroeste 0 -- -- 57
2019-09-26 03:00:00 15.6 3 Oeste 6 Oeste 0 -- -- 57
2019-09-26 02:00:00 17.7 8 Oeste 15 Oeste 0 -- -- 52
2019-09-26 01:00:00 17.6 4 Oeste 8 Oeste 0 -- -- 53
2019-09-26 00:00:00 18.7 5 Noroeste 10 Noroeste 0 -- -- 49
2019-09-25 23:00:00 17.4 2 Noroeste 5 Noroeste 0 -- -- 49
2019-09-25 22:00:00 19.1 6 Noroeste 8 Noroeste 0 -- -- 45
2019-09-25 21:00:00 20.5 6 Noroeste 12 Noroeste 0 -- -- 42
2019-09-25 20:00:00 23.5 8 Noroeste 24 Noroeste 0 -- -- 36
2019-09-25 19:00:00 25.5 13 Noroeste 26 Noroeste 0 -- -- 33
2019-09-25 18:00:00 26.2 14 Norte 26 Noroeste 0 -- -- 32
2019-09-25 17:00:00 26.1 13 Noroeste 23 Noroeste 0 -- -- 32
2019-09-25 16:00:00 25.2 14 Noroeste 28 Noroeste 0 -- -- 36
2019-09-25 15:00:00 24.8 12 Norte 25 Noroeste 0 -- -- 38
2019-09-25 14:00:00 23.5 13 Norte 20 Noroeste 0 -- -- 41
2019-09-25 13:00:00 22.5 9 Norte 18 Oeste 0 -- -- 41
2019-09-25 12:00:00 21.5 9 Norte 19 Norte 0 -- -- 46
2019-09-25 11:00:00 19.3 12 Noroeste 18 Norte 0 -- -- 56
2019-09-25 10:00:00 16.5 8 Noroeste 12 Noroeste 0 -- -- 74
2019-09-25 09:00:00 14.2 4 Oeste 12 Noroeste 0 -- -- 89
2019-09-25 08:00:00 13.5 9 Oeste 15 Noroeste 0 -- -- 91
2019-09-25 07:00:00 14 9 Noroeste 15 Oeste 0 -- -- 91
2019-09-25 06:00:00 15 4 Noroeste 17 Nordeste 0 -- -- 83
2019-09-25 05:00:00 15.6 9 Sudoeste 16 Noroeste 0 -- -- 83
2019-09-25 04:00:00 17.3 10 Noroeste 20 Noroeste 0 -- -- 74
2019-09-25 03:00:00 19.2 13 Noroeste 26 Noroeste 0 -- -- 73
2019-09-25 02:00:00 19.6 18 Noroeste 28 Noroeste 0 -- -- 75
2019-09-25 01:00:00 20 13 Noroeste 23 Noroeste 0 -- -- 82
2019-09-25 00:00:00 20.3 11 Noroeste 19 Noroeste 0 -- -- 78
2019-09-24 23:00:00 21.2 13 Noroeste 21 Noroeste 0 -- -- 73
2019-09-24 22:00:00 22.1 12 Noroeste 24 Noroeste 0 -- -- 69
2019-09-24 21:00:00 23.2 12 Noroeste 24 Noroeste 0 -- -- 62
2019-09-24 20:00:00 24.5 16 Noroeste 27 Noroeste 0 -- -- 55
2019-09-24 19:00:00 27 16 Noroeste 30 Noroeste 0 -- -- 43
2019-09-24 18:00:00 28.5 18 Oeste 31 Oeste 0 -- -- 31
2019-09-24 17:00:00 29 16 Oeste 27 Oeste 0 -- -- 28
2019-09-24 16:00:00 28.9 12 Oeste 24 Oeste 0 -- -- 29
2019-09-24 15:00:00 28.2 12 Oeste 22 Noroeste 0 -- -- 32
2019-09-24 14:00:00 26.7 9 Noroeste 24 Oeste 0 -- -- 33
2019-09-24 13:00:00 25 12 Oeste 22 Oeste 0 -- -- 40
2019-09-24 12:00:00 23.3 13 Oeste 23 Noroeste 0 -- -- 44
2019-09-24 11:00:00 20.9 3 Este 8 Este 0 -- -- 54
2019-09-24 10:00:00 16.6 5 Este 6 Este 0 -- -- 60
2019-09-24 09:00:00 11.2 2 Sudeste 3 Sudoeste 0 -- -- 79
2019-09-24 08:00:00 9.6 0 Calma 3 Noroeste 0 -- -- 81
2019-09-24 07:00:00 10.4 0 Calma 4 Sudeste 0 -- -- 79
2019-09-24 06:00:00 11.3 0 Calma 3 Este 0 -- -- 74
2019-09-24 05:00:00 11.8 0 Calma 10 Sudoeste 0 -- -- 70
2019-09-24 04:00:00 12.2 3 Sudoeste 6 Noroeste 0 -- -- 69
2019-09-24 03:00:00 13 0 Calma 6 Noroeste 0 -- -- 66
2019-09-24 02:00:00 14.2 4 Noroeste 8 Oeste 0 -- -- 63
2019-09-24 01:00:00 14.8 2 Oeste 5 Sudoeste 0 -- -- 63
2019-09-24 00:00:00 16 3 Oeste 7 Oeste 0 -- -- 59
2019-09-23 23:00:00 17.3 5 Oeste 6 Oeste 0 -- -- 54
2019-09-23 22:00:00 19.5 3 Noroeste 12 Noroeste 0 -- -- 48
2019-09-23 21:00:00 21.1 8 Noroeste 10 Noroeste 0 -- -- 45
2019-09-23 20:00:00 24.5 7 Noroeste 14 Noroeste 0 -- -- 35
2019-09-23 19:00:00 26.6 8 Norte 15 Norte 0 -- -- 30
2019-09-23 18:00:00 27.1 4 Sur 13 Sudeste 0 -- -- 32
2019-09-23 17:00:00 26.5 8 Sur 13 Sudeste 0 -- -- 35
2019-09-23 16:00:00 25.6 4 Noroeste 15 Norte 0 -- -- 37
2019-09-23 15:00:00 24.7 8 Nordeste 17 Nordeste 0 -- -- 39
2019-09-23 14:00:00 23 6 Sudeste 14 Este 0 -- -- 44
2019-09-23 13:00:00 21.9 5 Sur 14 Este 0 -- -- 47
2019-09-23 12:00:00 20.4 5 Este 18 Este 0 -- -- 54
2019-09-23 11:00:00 17.6 4 Sudeste 6 Sudeste 0 -- -- 65
2019-09-23 10:00:00 14.3 0 Calma 3 Sudeste 0 -- -- 82
2019-09-23 09:00:00 10.2 0 Calma 3 Sudeste 0 -- -- 95
2019-09-23 08:00:00 9.1 0 Calma 4 Sudeste 0 -- -- 94
2019-09-23 07:00:00 9.6 0 Calma 2 Sudeste 0 -- -- 94
2019-09-23 06:00:00 10.1 0 Calma 4 Norte 0 -- -- 91
2019-09-23 05:00:00 10.7 3 Este 6 Este 0 -- -- 91
2019-09-23 04:00:00 11.3 0 Calma 5 Sudoeste 0 -- -- 87
2019-09-23 03:00:00 12 2 Sudeste 6 Este 0 -- -- 83
2019-09-23 02:00:00 13.8 0 Calma 9 Noroeste 0 -- -- 78
2019-09-23 01:00:00 14.9 5 Noroeste 8 Noroeste 0 -- -- 72
2019-09-23 00:00:00 14.8 3 Noroeste 5 Noroeste 0 -- -- 74
2019-09-22 23:00:00 15.6 0 Calma 2 Oeste 0 -- -- 72
2019-09-22 22:00:00 16.3 0 Calma 7 Noroeste 0 -- -- 70
2019-09-22 21:00:00 17.9 4 Noroeste 15 Noroeste 0 -- -- 62
2019-09-22 20:00:00 20 11 Noroeste 21 Oeste 0 -- -- 51
2019-09-22 19:00:00 21.1 12 Noroeste 25 Noroeste 0 -- -- 50
2019-09-22 18:00:00 21.7 18 Noroeste 31 Noroeste 0 -- -- 48
2019-09-22 17:00:00 21.9 22 Noroeste 33 Noroeste 0 -- -- 51
2019-09-22 16:00:00 22.2 17 Noroeste 27 Norte 0 -- -- 48
2019-09-22 15:00:00 21.1 13 Norte 25 Noroeste 0 -- -- 57
2019-09-22 14:00:00 20.3 14 Noroeste 24 Noroeste 0 -- -- 59
2019-09-22 13:00:00 19.3 11 Noroeste 18 Noroeste 0 -- -- 60
2019-09-22 12:00:00 18.5 9 Norte 17 Noroeste 0 -- -- 69
2019-09-22 11:00:00 16.9 10 Noroeste 19 Noroeste 0 -- -- 77
2019-09-22 10:00:00 15.7 13 Noroeste 20 Noroeste 0 -- -- 82
2019-09-22 09:00:00 14.4 2 Este 27 Noroeste 0 -- -- 87
2019-09-22 08:00:00 14.6 23 Oeste 32 Oeste 0.2 -- -- 88
2019-09-22 07:00:00 17.2 13 Sudoeste 21 Sudoeste 1.2 -- -- 96
2019-09-22 06:00:00 17.4 12 Sudoeste 18 Sur 0 -- -- 93
2019-09-22 05:00:00 17.3 9 Sudoeste 19 Sur 0.2 -- -- 92
2019-09-22 04:00:00 17.4 6 Sur 23 Sudoeste 0 -- -- 91
2019-09-22 03:00:00 17.4 14 Sudoeste 30 Sudoeste 0.6 -- -- 92
2019-09-22 02:00:00 18.6 12 Sur 23 Sur 0 -- -- 86
2019-09-22 01:00:00 18.5 15 Sur 26 Sur 0 -- -- 85
2019-09-22 00:00:00 18.6 8 Sur 20 Sur 0 -- -- 85